Etusivu
METAR-TAF:

METAR-TAF

Lentoasemat :

Leknes, Norja

Leknesin lentoasema

Leveyspiiri: 68-09N, Pituuspiiri: 013-37E, korkeus merenpinnasta: 2 m

Tämänhetkinen sää

Tämä raportti tehtiin 25 minuuttia sitten, kello 15.20 UTC
Tuuli 10 kn idästä/kaakosta
Lämpötila 12°C
Kosteus 54%
Ilmanpaine 1023 hPa
Näkyvyys 10 km tai enemmän
Muutamia pilviä 4500 ft:n korkeudessa
Hajonneita pilviä 10000 ft:n korkeudessa

METAR: ENLK 211520Z 12010KT 9999 FEW045 BKN100 12/03 Q1023

Aika: 17:45 (15:45 UTC)


TAF: puuttuu

Säähavainnot ja -ennusteet yli 4000 lentoasemalta (METAR- ja TAF-raportit).

Käytössä olevat sääasemat on merkitty karttaan keltaisilla ja punaisilla pisteillä.

Aseta hiiri pisteen päälle nähdäksesi sääaseman nimen.

Klikkaa sitten nähdäksesi säähavainnot ja -ennusteet.

Kartan vaihtaminen: klikkaa mustalla rastilla varustettuja vihreitä pisteitä, niin voit zoomata sisään; viivalla varustettua vihreää pistettä, niin voit zoomata ulos tai vihreitä nuolia, niin pääset viereisille kartoille.


METAR-TAF: